NAW72A LGSA-LGSR
Flight info
| Callsign | NAW72A |
|---|---|
| Flight time | 0h 24m |
| Altitude | 23000 |
| Route | BAVES N1 IRA/N0479F220 Y145 GIVIS |
| Aircraft | C750/M-SBDE3FGHRWXY/S |
Departure
| Time | 2026-04-26 09:30 |
|---|---|
| Airport | Chania International Airport (LGSA) |
Arrival
| Time | 2026-04-26 09:54 |
|---|---|
| Airport | Santorini International Airport (LGSR) |
| Time | Latitude | Longitude | Altitude | Speed | Heading |
|---|---|---|---|---|---|
| 2026-04-26 09:05 | 35.53772 | 24.14330 | 489 ft | 0 kts | 352° |
| 2026-04-26 09:25 | 35.53773 | 24.14330 | 494 ft | 0 kts | 352° |
| 2026-04-26 09:25 | 35.53775 | 24.14326 | 487 ft | 1 kts | 315° |
| 2026-04-26 09:25 | 35.53771 | 24.14317 | 494 ft | 2 kts | 227° |
| 2026-04-26 09:26 | 35.53737 | 24.14308 | 487 ft | 9 kts | 190° |
| 2026-04-26 09:26 | 35.53676 | 24.14357 | 491 ft | 13 kts | 142° |
| 2026-04-26 09:26 | 35.53585 | 24.14336 | 494 ft | 13 kts | 190° |
| 2026-04-26 09:26 | 35.53531 | 24.14435 | 490 ft | 18 kts | 112° |
| 2026-04-26 09:27 | 35.53475 | 24.14609 | 487 ft | 25 kts | 111° |
| 2026-04-26 09:27 | 35.53401 | 24.14833 | 486 ft | 31 kts | 112° |
| 2026-04-26 09:27 | 35.53317 | 24.15090 | 488 ft | 33 kts | 111° |
| 2026-04-26 09:27 | 35.53236 | 24.15344 | 493 ft | 33 kts | 111° |
| 2026-04-26 09:28 | 35.53166 | 24.15558 | 490 ft | 27 kts | 111° |
| 2026-04-26 09:28 | 35.53093 | 24.15784 | 487 ft | 29 kts | 112° |
| 2026-04-26 09:28 | 35.53027 | 24.15978 | 490 ft | 13 kts | 130° |
| 2026-04-26 09:28 | 35.52952 | 24.15962 | 489 ft | 12 kts | 203° |
| 2026-04-26 09:29 | 35.52877 | 24.15922 | 490 ft | 8 kts | 214° |
| 2026-04-26 09:29 | 35.52882 | 24.15860 | 490 ft | 11 kts | 291° |
| 2026-04-26 09:29 | 35.52935 | 24.15693 | 487 ft | 51 kts | 292° |
| 2026-04-26 09:29 | 35.53219 | 24.14831 | 616 ft | 139 kts | 291° |
| 2026-04-26 09:30 | 35.53573 | 24.13756 | 1552 ft | 133 kts | 291° |
| 2026-04-26 09:30 | 35.53929 | 24.12718 | 2461 ft | 136 kts | 292° |
| 2026-04-26 09:30 | 35.54307 | 24.11574 | 3176 ft | 151 kts | 294° |
| 2026-04-26 09:30 | 35.54939 | 24.10506 | 3966 ft | 159 kts | 317° |
| 2026-04-26 09:31 | 35.55875 | 24.09761 | 4843 ft | 164 kts | 338° |
| 2026-04-26 09:31 | 35.57050 | 24.09595 | 5569 ft | 178 kts | 9° |
| 2026-04-26 09:31 | 35.58190 | 24.10155 | 6427 ft | 183 kts | 35° |
| 2026-04-26 09:31 | 35.58984 | 24.11402 | 7286 ft | 192 kts | 63° |
| 2026-04-26 09:32 | 35.59152 | 24.13056 | 8226 ft | 204 kts | 94° |
| 2026-04-26 09:32 | 35.58535 | 24.14657 | 9234 ft | 217 kts | 126° |
| 2026-04-26 09:32 | 35.57227 | 24.15634 | 10243 ft | 223 kts | 155° |
| 2026-04-26 09:32 | 35.55770 | 24.16182 | 11328 ft | 214 kts | 158° |
| 2026-04-26 09:33 | 35.54364 | 24.16703 | 12244 ft | 211 kts | 157° |
| 2026-04-26 09:33 | 35.53013 | 24.17409 | 12919 ft | 211 kts | 138° |
| 2026-04-26 09:33 | 35.52140 | 24.18803 | 13683 ft | 202 kts | 110° |
| 2026-04-26 09:33 | 35.51785 | 24.20427 | 14537 ft | 196 kts | 98° |
| 2026-04-26 09:34 | 35.51502 | 24.22068 | 15281 ft | 197 kts | 98° |
| 2026-04-26 09:34 | 35.51208 | 24.23731 | 15898 ft | 207 kts | 98° |
| 2026-04-26 09:34 | 35.50897 | 24.25502 | 16400 ft | 218 kts | 98° |
| 2026-04-26 09:34 | 35.50576 | 24.27299 | 17247 ft | 214 kts | 97° |
| 2026-04-26 09:35 | 35.50259 | 24.29094 | 17999 ft | 215 kts | 97° |
| 2026-04-26 09:35 | 35.49943 | 24.30893 | 18763 ft | 215 kts | 97° |
| 2026-04-26 09:35 | 35.49626 | 24.32687 | 19546 ft | 214 kts | 97° |
| 2026-04-26 09:35 | 35.49391 | 24.34479 | 20246 ft | 212 kts | 82° |
| 2026-04-26 09:36 | 35.49960 | 24.36075 | 20952 ft | 202 kts | 51° |
| 2026-04-26 09:36 | 35.50847 | 24.37367 | 21793 ft | 196 kts | 47° |
| 2026-04-26 09:36 | 35.51706 | 24.38676 | 22507 ft | 198 kts | 51° |
| 2026-04-26 09:36 | 35.52543 | 24.40065 | 23087 ft | 211 kts | 51° |
| 2026-04-26 09:37 | 35.53478 | 24.41620 | 23055 ft | 247 kts | 51° |
| 2026-04-26 09:37 | 35.54576 | 24.43437 | 23044 ft | 282 kts | 52° |
| 2026-04-26 09:37 | 35.55812 | 24.45489 | 23042 ft | 315 kts | 52° |
| 2026-04-26 09:37 | 35.57175 | 24.47753 | 23038 ft | 344 kts | 52° |
| 2026-04-26 09:38 | 35.58656 | 24.50213 | 23034 ft | 371 kts | 52° |
| 2026-04-26 09:38 | 35.60238 | 24.52842 | 23032 ft | 394 kts | 52° |
| 2026-04-26 09:38 | 35.61911 | 24.55625 | 23025 ft | 415 kts | 52° |
| 2026-04-26 09:38 | 35.63663 | 24.58546 | 23025 ft | 433 kts | 52° |
| 2026-04-26 09:39 | 35.65481 | 24.61582 | 23026 ft | 445 kts | 52° |
| 2026-04-26 09:39 | 35.67153 | 24.64815 | 22983 ft | 452 kts | 63° |
| 2026-04-26 09:39 | 35.68036 | 24.68542 | 23009 ft | 456 kts | 76° |
| 2026-04-26 09:39 | 35.69158 | 24.72163 | 22950 ft | 444 kts | 59° |
| 2026-04-26 09:40 | 35.70942 | 24.75057 | 22417 ft | 406 kts | 47° |
| 2026-04-26 09:40 | 35.72709 | 24.77637 | 21830 ft | 388 kts | 51° |
| 2026-04-26 09:40 | 35.74298 | 24.80297 | 21175 ft | 384 kts | 53° |
| 2026-04-26 09:40 | 35.75870 | 24.82883 | 20541 ft | 380 kts | 51° |
| 2026-04-26 09:41 | 35.77524 | 24.85410 | 19891 ft | 377 kts | 50° |
| 2026-04-26 09:41 | 35.79163 | 24.87912 | 19241 ft | 374 kts | 51° |
| 2026-04-26 09:41 | 35.80746 | 24.90429 | 18592 ft | 370 kts | 52° |
| 2026-04-26 09:41 | 35.82311 | 24.92932 | 17944 ft | 367 kts | 52° |
| 2026-04-26 09:42 | 35.83879 | 24.95394 | 17291 ft | 363 kts | 51° |
| 2026-04-26 09:42 | 35.85434 | 24.97826 | 16741 ft | 360 kts | 52° |
| 2026-04-26 09:42 | 35.86973 | 25.00256 | 16292 ft | 358 kts | 52° |
| 2026-04-26 09:42 | 35.88501 | 25.02677 | 15843 ft | 356 kts | 52° |
| 2026-04-26 09:43 | 35.90021 | 25.05078 | 15394 ft | 354 kts | 52° |
| 2026-04-26 09:43 | 35.91532 | 25.07465 | 14944 ft | 348 kts | 52° |
| 2026-04-26 09:43 | 35.92962 | 25.09732 | 14486 ft | 322 kts | 53° |
| 2026-04-26 09:43 | 35.94276 | 25.11818 | 14036 ft | 303 kts | 53° |
| 2026-04-26 09:44 | 35.95538 | 25.13818 | 13576 ft | 290 kts | 53° |
| 2026-04-26 09:44 | 35.96766 | 25.15765 | 13109 ft | 285 kts | 53° |
| 2026-04-26 09:44 | 35.97976 | 25.17681 | 12648 ft | 282 kts | 54° |
| 2026-04-26 09:44 | 35.99173 | 25.19581 | 12197 ft | 280 kts | 54° |
| 2026-04-26 09:45 | 36.00366 | 25.21477 | 11745 ft | 278 kts | 54° |
| 2026-04-26 09:45 | 36.01554 | 25.23366 | 11292 ft | 279 kts | 54° |
| 2026-04-26 09:45 | 36.02739 | 25.25250 | 10845 ft | 277 kts | 54° |
| 2026-04-26 09:45 | 36.03922 | 25.27130 | 10392 ft | 276 kts | 53° |
| 2026-04-26 09:46 | 36.05079 | 25.28973 | 9936 ft | 265 kts | 53° |
| 2026-04-26 09:46 | 36.06199 | 25.30760 | 9486 ft | 261 kts | 53° |
| 2026-04-26 09:46 | 36.07298 | 25.32508 | 9035 ft | 261 kts | 53° |
| 2026-04-26 09:46 | 36.08410 | 25.34274 | 8593 ft | 259 kts | 53° |
| 2026-04-26 09:47 | 36.09513 | 25.36036 | 8143 ft | 258 kts | 53° |
| 2026-04-26 09:47 | 36.10607 | 25.37789 | 7689 ft | 257 kts | 52° |
| 2026-04-26 09:47 | 36.11722 | 25.39510 | 7220 ft | 255 kts | 48° |
| 2026-04-26 09:47 | 36.13194 | 25.40708 | 6682 ft | 255 kts | 22° |
| 2026-04-26 09:48 | 36.14908 | 25.41257 | 6227 ft | 254 kts | 13° |
| 2026-04-26 09:48 | 36.16622 | 25.41721 | 5798 ft | 250 kts | 13° |
| 2026-04-26 09:48 | 36.18319 | 25.42206 | 5362 ft | 250 kts | 14° |
| 2026-04-26 09:48 | 36.20009 | 25.42694 | 4922 ft | 249 kts | 13° |
| 2026-04-26 09:49 | 36.21668 | 25.43183 | 4526 ft | 246 kts | 15° |
| 2026-04-26 09:49 | 36.23264 | 25.43951 | 4258 ft | 245 kts | 25° |
| 2026-04-26 09:49 | 36.24700 | 25.44982 | 3953 ft | 233 kts | 33° |
| 2026-04-26 09:49 | 36.26011 | 25.46123 | 3748 ft | 228 kts | 35° |
| 2026-04-26 09:50 | 36.27258 | 25.47307 | 3623 ft | 221 kts | 38° |
| 2026-04-26 09:50 | 36.28373 | 25.48501 | 3389 ft | 203 kts | 41° |
| 2026-04-26 09:50 | 36.29396 | 25.49696 | 2761 ft | 202 kts | 40° |
| 2026-04-26 09:50 | 36.30474 | 25.50716 | 1792 ft | 182 kts | 31° |
| 2026-04-26 09:51 | 36.31535 | 25.50992 | 1362 ft | 139 kts | 354° |
| 2026-04-26 09:51 | 36.32438 | 25.50892 | 1095 ft | 124 kts | 351° |
| 2026-04-26 09:51 | 36.33276 | 25.50730 | 890 ft | 120 kts | 348° |
| 2026-04-26 09:51 | 36.34083 | 25.50533 | 774 ft | 119 kts | 347° |
| 2026-04-26 09:52 | 36.34902 | 25.50264 | 622 ft | 121 kts | 342° |
| 2026-04-26 09:52 | 36.36422 | 25.49553 | 371 ft | 118 kts | 339° |
| 2026-04-26 09:52 | 36.37174 | 25.49211 | 291 ft | 113 kts | 340° |
| 2026-04-26 09:53 | 36.37865 | 25.48889 | 293 ft | 104 kts | 339° |
| 2026-04-26 09:53 | 36.38567 | 25.48558 | 175 ft | 110 kts | 340° |
| 2026-04-26 09:53 | 36.39270 | 25.48222 | 58 ft | 103 kts | 339° |
| 2026-04-26 09:53 | 36.39774 | 25.47983 | 75 ft | 56 kts | 338° |
| 2026-04-26 09:54 | 36.40064 | 25.47842 | 82 ft | 40 kts | 340° |
| 2026-04-26 09:54 | 36.40273 | 25.47748 | 85 ft | 16 kts | 340° |
| 2026-04-26 09:54 | 36.40316 | 25.47680 | 87 ft | 9 kts | 251° |
| 2026-04-26 09:54 | 36.40293 | 25.47610 | 86 ft | 9 kts | 250° |
| 2026-04-26 09:55 | 36.40272 | 25.47540 | 87 ft | 9 kts | 249° |
| 2026-04-26 09:55 | 36.40252 | 25.47502 | 86 ft | 2 kts | 208° |
| 2026-04-26 09:55 | 36.40230 | 25.47499 | 86 ft | 5 kts | 171° |
| 2026-04-26 09:55 | 36.40193 | 25.47517 | 89 ft | 6 kts | 159° |
| 2026-04-26 09:56 | 36.40171 | 25.47526 | 85 ft | 0 kts | 163° |
| 2026-04-26 09:56 | 36.40166 | 25.47528 | 87 ft | 2 kts | 163° |
| 2026-04-26 09:56 | 36.40158 | 25.47523 | 85 ft | 3 kts | 213° |
| 2026-04-26 09:56 | 36.40142 | 25.47492 | 87 ft | 4 kts | 251° |
| 2026-04-26 09:57 | 36.40146 | 25.47466 | 85 ft | 2 kts | 316° |
| 2026-04-26 09:57 | 36.40153 | 25.47462 | 85 ft | 0 kts | 340° |